createdAt,value
2023-04-09T00:03:50.089Z,7.01
2023-04-09T00:09:00.251Z,6.50
2023-04-09T00:13:59.302Z,6.22
2023-04-09T00:19:09.293Z,6.06
2023-04-09T00:24:09.094Z,6.34
2023-04-09T00:29:18.106Z,6.23
2023-04-09T00:34:27.405Z,6.20
2023-04-09T00:39:37.670Z,6.68
2023-04-09T00:44:36.079Z,6.49
2023-04-09T00:49:37.899Z,7.07
2023-04-09T00:54:46.411Z,7.49
2023-04-09T00:59:58.704Z,7.40
2023-04-09T01:04:56.878Z,8.32
2023-04-09T01:10:06.496Z,7.70
2023-04-09T01:15:15.388Z,8.16
2023-04-09T01:20:25.211Z,7.52
2023-04-09T01:25:26.449Z,7.76
2023-04-09T01:30:35.531Z,7.68
2023-04-09T01:35:45.353Z,7.81
2023-04-09T01:40:55.318Z,7.24
2023-04-09T01:46:05.011Z,7.60
2023-04-09T01:51:13.917Z,7.87
2023-04-09T01:56:22.132Z,8.01
2023-04-09T02:01:31.136Z,7.42
2023-04-09T02:06:40.206Z,7.11
2023-04-09T02:11:49.399Z,7.58
2023-04-09T02:16:59.173Z,6.85
2023-04-09T02:22:07.777Z,6.57
2023-04-09T02:27:17.520Z,7.41
2023-04-09T02:32:27.589Z,6.71
2023-04-09T02:37:29.061Z,6.92
2023-04-09T02:42:28.812Z,6.83
2023-04-09T02:47:31.226Z,6.50
2023-04-09T02:52:40.948Z,6.53
2023-04-09T02:57:49.523Z,8.64
2023-04-09T03:02:58.813Z,9.35
2023-04-09T03:08:08.146Z,10.31
2023-04-09T03:13:18.077Z,9.92
2023-04-09T03:18:26.221Z,11.31
2023-04-09T03:23:35.934Z,9.93
2023-04-09T03:28:46.126Z,9.82
2023-04-09T03:33:45.947Z,10.50
2023-04-09T03:38:55.613Z,10.25
2023-04-09T03:44:05.491Z,10.84
2023-04-09T03:49:14.733Z,10.69
2023-04-09T03:54:23.691Z,10.35
2023-04-09T03:59:34.405Z,10.18
2023-04-09T04:04:34.026Z,10.94
2023-04-09T04:09:42.502Z,11.34
2023-04-09T04:14:51.397Z,10.51
2023-04-09T04:20:01.557Z,10.46
2023-04-09T04:25:00.979Z,10.39
2023-04-09T04:30:10.573Z,9.85
2023-04-09T04:35:20.427Z,10.46
2023-04-09T04:40:28.675Z,10.05
2023-04-09T04:45:38.240Z,9.93
2023-04-09T04:50:47.379Z,9.23
2023-04-09T04:55:57.573Z,9.82
2023-04-09T05:00:56.036Z,9.62
2023-04-09T05:06:08.474Z,10.60
2023-04-09T05:11:10.440Z,9.59
2023-04-09T05:16:10.633Z,10.06
2023-04-09T05:21:10.180Z,8.81
2023-04-09T05:26:19.351Z,8.66
2023-04-09T05:31:27.765Z,8.89
2023-04-09T05:36:37.994Z,9.08
2023-04-09T05:41:36.390Z,9.27
2023-04-09T05:46:46.268Z,8.24
2023-04-09T05:51:56.333Z,8.21
2023-04-09T05:56:54.866Z,8.47
2023-04-09T06:02:03.467Z,7.97
2023-04-09T06:07:13.382Z,7.85
2023-04-09T06:12:23.244Z,8.85
2023-04-09T06:17:33.709Z,7.93
2023-04-09T06:22:32.247Z,8.61
2023-04-09T06:27:42.552Z,8.47
2023-04-09T06:32:53.147Z,8.67
2023-04-09T06:37:50.370Z,8.28
2023-04-09T06:42:59.017Z,8.22
2023-04-09T06:48:09.737Z,8.13
2023-04-09T06:53:08.374Z,8.42
2023-04-09T06:58:18.807Z,8.78
2023-04-09T07:03:18.461Z,9.12
2023-04-09T07:08:28.358Z,9.81
2023-04-09T07:18:37.655Z,10.70
2023-04-09T07:23:37.728Z,10.37
2023-04-09T07:28:37.014Z,9.79
2023-04-09T07:33:45.571Z,9.65
2023-04-09T07:38:54.643Z,9.60
2023-04-09T07:44:03.433Z,9.55
2023-04-09T07:49:13.641Z,9.84
2023-04-09T07:54:13.762Z,9.86
2023-04-09T07:59:14.208Z,9.51
2023-04-09T08:04:14.352Z,9.67
2023-04-09T08:09:15.331Z,9.63
2023-04-09T08:14:14.466Z,9.39
2023-04-09T08:19:24.576Z,9.83
2023-04-09T08:24:23.266Z,9.85
2023-04-09T08:29:33.497Z,9.71
2023-04-09T08:34:33.260Z,9.72
2023-04-09T08:39:42.716Z,10.09
2023-04-09T08:44:51.194Z,9.85
2023-04-09T08:54:59.928Z,10.00
2023-04-09T09:00:09.290Z,9.89
2023-04-09T09:05:18.626Z,10.09
2023-04-09T09:10:27.555Z,10.38
2023-04-09T09:15:36.346Z,10.59
2023-04-09T09:20:46.820Z,9.90
2023-04-09T09:41:15.592Z,10.28
2023-04-09T09:46:14.164Z,9.85
2023-04-09T09:51:22.923Z,9.22
2023-04-09T10:06:44.466Z,9.09
2023-04-09T10:11:53.168Z,9.69
2023-04-09T10:17:02.412Z,8.54
2023-04-09T10:22:12.774Z,8.79
2023-04-09T10:27:12.551Z,8.95
2023-04-09T10:32:20.953Z,8.82
2023-04-09T10:37:29.712Z,8.68
2023-04-09T10:42:39.740Z,8.50
2023-04-09T10:47:40.246Z,7.38
2023-04-09T10:52:40.722Z,7.43
2023-04-09T10:57:40.395Z,7.22
2023-04-09T11:02:49.119Z,6.10
2023-04-09T11:07:59.139Z,5.65
2023-04-09T11:12:57.975Z,5.58
2023-04-09T11:18:07.809Z,5.97
2023-04-09T11:23:16.912Z,5.47
2023-04-09T11:28:26.785Z,5.47
2023-04-09T11:33:35.791Z,6.11
2023-04-09T11:38:45.097Z,5.86
2023-04-09T11:43:53.677Z,5.63
2023-04-09T11:49:03.372Z,6.01
2023-04-09T11:54:13.409Z,5.77
2023-04-09T11:59:13.297Z,6.25
2023-04-09T12:04:22.591Z,6.02
2023-04-09T12:09:32.640Z,5.86
2023-04-09T12:14:32.474Z,5.50
2023-04-09T12:19:40.947Z,5.58
2023-04-09T12:24:49.569Z,6.44
2023-04-09T12:29:58.626Z,5.47
2023-04-09T12:35:10.038Z,5.51
2023-04-09T12:40:08.453Z,5.51
2023-04-09T12:45:18.176Z,5.37
2023-04-09T12:50:26.607Z,5.53
2023-04-09T12:55:37.128Z,5.09
2023-04-09T13:00:36.952Z,4.81
2023-04-09T13:05:47.280Z,4.77
2023-04-09T13:10:45.909Z,4.43
2023-04-09T13:15:54.834Z,4.53
2023-04-09T13:21:07.288Z,4.13
2023-04-09T13:26:06.771Z,3.92
2023-04-09T13:31:22.199Z,4.10
2023-04-09T13:36:21.550Z,4.51
2023-04-09T13:41:31.927Z,4.11
2023-04-09T13:46:41.151Z,3.90
2023-04-09T13:51:39.303Z,4.89
2023-04-09T13:56:49.501Z,4.64
2023-04-09T14:01:48.997Z,4.67
2023-04-09T14:06:58.723Z,4.91
2023-04-09T14:12:09.545Z,5.06
2023-04-09T14:17:09.789Z,5.37
2023-04-09T14:37:36.730Z,4.95
2023-04-09T14:42:36.762Z,4.73
2023-04-09T14:57:37.559Z,3.59
2023-04-09T15:28:07.037Z,4.39
2023-04-09T15:33:17.169Z,4.05
2023-04-09T15:38:16.013Z,4.20
2023-04-09T15:53:43.855Z,4.17
2023-04-09T15:58:54.724Z,4.38
2023-04-09T16:03:53.568Z,3.93
2023-04-09T16:09:04.393Z,4.29
2023-04-09T16:19:14.045Z,4.48
2023-04-09T16:24:24.050Z,4.48
2023-04-09T16:29:23.200Z,4.44
2023-04-09T16:34:31.580Z,4.29
2023-04-09T16:39:40.445Z,4.67
2023-04-09T16:44:49.748Z,4.90
2023-04-09T16:49:58.658Z,5.11
2023-04-09T16:55:07.208Z,4.86
2023-04-09T17:00:09.243Z,4.96
2023-04-09T17:05:11.232Z,5.52
2023-04-09T17:10:23.519Z,5.42
2023-04-09T17:15:23.341Z,4.98
2023-04-09T17:20:32.710Z,4.75
2023-04-09T17:25:43.255Z,4.53
2023-04-09T17:30:38.551Z,4.68
2023-04-09T17:35:50.139Z,4.32
2023-04-09T17:40:51.165Z,4.75
2023-04-09T17:45:52.942Z,4.92
2023-04-09T17:50:53.798Z,5.16
2023-04-09T17:55:56.172Z,4.87
2023-04-09T18:00:53.224Z,5.26
2023-04-09T18:06:02.834Z,4.99
2023-04-09T18:11:13.475Z,4.83
2023-04-09T18:16:20.868Z,4.96
2023-04-09T18:21:30.280Z,5.14
2023-04-09T18:26:39.005Z,4.90
2023-04-09T18:31:48.338Z,4.85
2023-04-09T18:36:57.927Z,5.00
2023-04-09T18:42:06.748Z,5.07
2023-04-09T18:47:16.000Z,4.95
2023-04-09T18:52:25.689Z,5.13
2023-04-09T18:57:34.345Z,5.09
2023-04-09T19:02:44.240Z,5.26
2023-04-09T19:07:52.788Z,5.16
2023-04-09T19:13:01.739Z,5.46
2023-04-09T19:18:10.442Z,5.33
2023-04-09T19:23:19.432Z,5.76
2023-04-09T19:28:28.181Z,5.15
2023-04-09T19:33:37.223Z,5.63
2023-04-09T19:38:45.454Z,5.60
2023-04-09T19:43:54.785Z,5.50
2023-04-09T19:49:03.698Z,5.79
2023-04-09T19:54:13.142Z,5.29
2023-04-09T19:59:21.851Z,5.31
2023-04-09T20:04:31.098Z,5.33
2023-04-09T20:09:39.589Z,5.17
2023-04-09T20:14:48.750Z,5.37
2023-04-09T20:19:57.298Z,5.52
2023-04-09T20:25:06.211Z,5.99
2023-04-09T20:30:14.715Z,5.61
2023-04-09T20:35:23.597Z,5.58
2023-04-09T20:40:32.763Z,5.57
2023-04-09T20:45:41.955Z,5.25
2023-04-09T20:50:50.471Z,6.49
2023-04-09T20:55:59.774Z,6.65
2023-04-09T21:01:09.179Z,6.37
2023-04-09T21:06:18.480Z,7.24
2023-04-09T21:11:27.364Z,6.64
2023-04-09T21:16:36.315Z,6.61
2023-04-09T21:21:44.835Z,6.78
2023-04-09T21:26:53.957Z,6.71
2023-04-09T21:32:08.852Z,6.76
2023-04-09T21:37:07.522Z,6.83
2023-04-09T21:42:15.941Z,6.65
2023-04-09T21:47:25.020Z,6.72
2023-04-09T21:52:33.561Z,6.74
2023-04-09T21:57:42.479Z,6.43
2023-04-09T22:02:52.148Z,7.33
2023-04-09T22:08:01.376Z,7.32
2023-04-09T22:13:10.068Z,7.67
2023-04-09T22:18:19.062Z,6.53
2023-04-09T22:23:27.526Z,7.21
2023-04-09T22:28:36.440Z,6.47
2023-04-09T22:33:44.870Z,10.58
2023-04-09T22:38:54.016Z,6.60
2023-04-09T22:44:02.464Z,6.76
2023-04-09T22:49:11.903Z,6.31
2023-04-09T22:54:20.215Z,7.07
2023-04-09T23:04:37.372Z,6.45
2023-04-09T23:09:49.045Z,6.55
2023-04-09T23:14:49.553Z,6.67
2023-04-09T23:19:57.018Z,6.22
2023-04-09T23:25:05.497Z,6.44
2023-04-09T23:30:14.491Z,7.39
2023-04-09T23:35:23.631Z,7.93
2023-04-09T23:40:32.193Z,9.17
2023-04-09T23:45:41.108Z,9.04
2023-04-09T23:50:50.321Z,7.56
2023-04-09T23:55:58.939Z,6.56
